sensor_id;sensor_type;location;lat;lon;timestamp;temperature;humidity
24176;DHT22;12324;48.146;11.502;2022-10-23T03:05:05;13.80;99.90
24176;DHT22;12324;48.146;11.502;2022-10-23T03:07:33;9.90;99.90
24176;DHT22;12324;48.146;11.502;2022-10-23T03:10:00;9.60;99.90
24176;DHT22;12324;48.146;11.502;2022-10-23T03:12:26;9.60;99.90
24176;DHT22;12324;48.146;11.502;2022-10-23T03:14:53;9.50;99.90
24176;DHT22;12324;48.146;11.502;2022-10-23T03:17:20;9.50;99.90
24176;DHT22;12324;48.146;11.502;2022-10-23T03:19:46;9.40;99.90
24176;DHT22;12324;48.146;11.502;2022-10-23T03:22:13;9.40;99.90
24176;DHT22;12324;48.146;11.502;2022-10-23T03:24:39;9.30;99.90
24176;DHT22;12324;48.146;11.502;2022-10-23T03:27:06;9.30;99.90
24176;DHT22;12324;48.146;11.502;2022-10-23T03:29:33;9.30;99.90
24176;DHT22;12324;48.146;11.502;2022-10-23T03:31:59;9.30;99.90
24176;DHT22;12324;48.146;11.502;2022-10-23T03:34:26;9.20;99.90
24176;DHT22;12324;48.146;11.502;2022-10-23T03:36:53;9.30;99.90
24176;DHT22;12324;48.146;11.502;2022-10-23T03:39:19;9.20;99.90
24176;DHT22;12324;48.146;11.502;2022-10-23T03:41:46;9.30;99.90
24176;DHT22;12324;48.146;11.502;2022-10-23T03:44:13;9.20;99.90
24176;DHT22;12324;48.146;11.502;2022-10-23T03:46:39;9.20;99.90
24176;DHT22;12324;48.146;11.502;2022-10-23T03:49:06;9.20;99.90
24176;DHT22;12324;48.146;11.502;2022-10-23T03:51:33;9.20;99.90
24176;DHT22;12324;48.146;11.502;2022-10-23T03:54:00;9.20;99.90
24176;DHT22;12324;48.146;11.502;2022-10-23T03:56:26;9.20;99.90
24176;DHT22;12324;48.146;11.502;2022-10-23T03:58:53;9.10;99.90
24176;DHT22;12324;48.146;11.502;2022-10-23T04:01:20;9.20;99.90
24176;DHT22;12324;48.146;11.502;2022-10-23T04:03:46;9.20;99.90
24176;DHT22;12324;48.146;11.502;2022-10-23T04:06:13;9.20;99.90
24176;DHT22;12324;48.146;11.502;2022-10-23T04:08:42;9.20;99.90
24176;DHT22;12324;48.146;11.502;2022-10-23T04:11:09;9.20;99.90
24176;DHT22;12324;48.146;11.502;2022-10-23T04:13:36;9.10;99.90
24176;DHT22;12324;48.146;11.502;2022-10-23T04:16:03;9.00;99.90
24176;DHT22;12324;48.146;11.502;2022-10-23T04:18:29;9.00;99.90
24176;DHT22;12324;48.146;11.502;2022-10-23T04:20:56;9.00;99.90
24176;DHT22;12324;48.146;11.502;2022-10-23T04:23:22;8.90;99.90
24176;DHT22;12324;48.146;11.502;2022-10-23T04:25:49;9.00;99.90
24176;DHT22;12324;48.146;11.502;2022-10-23T04:28:16;8.90;99.90
24176;DHT22;12324;48.146;11.502;2022-10-23T04:30:42;8.90;99.90
24176;DHT22;12324;48.146;11.502;2022-10-23T04:33:09;8.90;99.90
24176;DHT22;12324;48.146;11.502;2022-10-23T04:35:35;9.00;99.90
24176;DHT22;12324;48.146;11.502;2022-10-23T04:38:02;8.90;99.90
24176;DHT22;12324;48.146;11.502;2022-10-23T04:40:29;8.90;99.90
24176;DHT22;12324;48.146;11.502;2022-10-23T04:42:55;8.90;99.90
24176;DHT22;12324;48.146;11.502;2022-10-23T04:45:22;8.80;99.90
24176;DHT22;12324;48.146;11.502;2022-10-23T04:47:49;8.80;99.90
24176;DHT22;12324;48.146;11.502;2022-10-23T04:50:16;8.80;99.90
24176;DHT22;12324;48.146;11.502;2022-10-23T04:52:42;8.80;99.90
24176;DHT22;12324;48.146;11.502;2022-10-23T04:55:10;8.70;99.90
24176;DHT22;12324;48.146;11.502;2022-10-23T04:57:37;8.80;99.90
24176;DHT22;12324;48.146;11.502;2022-10-23T05:00:05;8.80;99.90
24176;DHT22;12324;48.146;11.502;2022-10-23T05:02:33;8.90;99.90
24176;DHT22;12324;48.146;11.502;2022-10-23T05:04:59;8.90;99.90
24176;DHT22;12324;48.146;11.502;2022-10-23T05:07:26;8.90;99.90
24176;DHT22;12324;48.146;11.502;2022-10-23T05:09:52;8.90;99.90
24176;DHT22;12324;48.146;11.502;2022-10-23T05:12:19;8.90;99.90
24176;DHT22;12324;48.146;11.502;2022-10-23T05:14:46;9.00;99.90
24176;DHT22;12324;48.146;11.502;2022-10-23T05:17:23;8.90;99.90
24176;DHT22;12324;48.146;11.502;2022-10-23T05:19:55;8.90;99.90
24176;DHT22;12324;48.146;11.502;2022-10-23T05:22:24;8.90;99.90
24176;DHT22;12324;48.146;11.502;2022-10-23T05:24:52;8.90;99.90
24176;DHT22;12324;48.146;11.502;2022-10-23T05:27:19;8.90;99.90
24176;DHT22;12324;48.146;11.502;2022-10-23T05:29:46;8.80;99.90
24176;DHT22;12324;48.146;11.502;2022-10-23T05:32:14;8.80;99.90
24176;DHT22;12324;48.146;11.502;2022-10-23T05:34:41;8.80;99.90
24176;DHT22;12324;48.146;11.502;2022-10-23T05:37:10;8.90;99.90
24176;DHT22;12324;48.146;11.502;2022-10-23T05:39:38;8.90;99.90
24176;DHT22;12324;48.146;11.502;2022-10-23T13:48:11;8.90;99.90
24176;DHT22;12324;48.146;11.502;2022-10-23T13:50:39;26.50;99.90
24176;DHT22;12324;48.146;11.502;2022-10-23T13:53:10;26.10;99.90
24176;DHT22;12324;48.146;11.502;2022-10-23T14:12:53;25.90;99.90
24176;DHT22;12324;48.146;11.502;2022-10-23T14:15:21;25.30;99.90
24176;DHT22;12324;48.146;11.502;2022-10-23T14:17:47;25.40;99.90
24176;DHT22;12324;48.146;11.502;2022-10-23T14:20:14;25.30;99.90
24176;DHT22;12324;48.146;11.502;2022-10-23T14:22:44;25.20;99.90
24176;DHT22;12324;48.146;11.502;2022-10-23T14:27:38;24.80;99.90
24176;DHT22;12324;48.146;11.502;2022-10-23T14:30:06;24.60;99.90
24176;DHT22;12324;48.146;11.502;2022-10-23T14:32:32;24.10;99.90
24176;DHT22;12324;48.146;11.502;2022-10-23T14:34:59;23.70;99.90
24176;DHT22;12324;48.146;11.502;2022-10-23T14:37:33;23.50;99.90
24176;DHT22;12324;48.146;11.502;2022-10-23T14:40:00;23.10;99.90
24176;DHT22;12324;48.146;11.502;2022-10-23T14:42:26;23.00;99.90
24176;DHT22;12324;48.146;11.502;2022-10-23T14:47:28;22.80;99.90
24176;DHT22;12324;48.146;11.502;2022-10-23T15:14:33;22.40;99.90
24176;DHT22;12324;48.146;11.502;2022-10-23T15:17:00;21.00;99.90
24176;DHT22;12324;48.146;11.502;2022-10-23T15:19:26;20.90;99.90
24176;DHT22;12324;48.146;11.502;2022-10-23T15:24:20;20.70;99.90
24176;DHT22;12324;48.146;11.502;2022-10-23T15:26:47;20.40;99.90
24176;DHT22;12324;48.146;11.502;2022-10-23T15:29:15;20.30;99.90
24176;DHT22;12324;48.146;11.502;2022-10-23T15:31:48;20.20;99.90
24176;DHT22;12324;48.146;11.502;2022-10-23T15:34:20;20.00;99.90
24176;DHT22;12324;48.146;11.502;2022-10-23T15:49:08;19.90;99.90
24176;DHT22;12324;48.146;11.502;2022-10-23T15:51:35;19.30;99.90
24176;DHT22;12324;48.146;11.502;2022-10-23T15:54:04;19.20;99.90
24176;DHT22;12324;48.146;11.502;2022-10-23T15:56:32;19.10;99.90
24176;DHT22;12324;48.146;11.502;2022-10-23T18:07:38;19.00;99.90
24176;DHT22;12324;48.146;11.502;2022-10-23T18:10:05;17.00;99.90
24176;DHT22;12324;48.146;11.502;2022-10-23T18:12:32;16.80;99.90
24176;DHT22;12324;48.146;11.502;2022-10-23T18:14:58;16.70;99.90
24176;DHT22;12324;48.146;11.502;2022-10-23T18:17:26;16.60;99.90
24176;DHT22;12324;48.146;11.502;2022-10-23T18:19:53;16.60;99.90
24176;DHT22;12324;48.146;11.502;2022-10-23T18:22:26;16.40;99.90
24176;DHT22;12324;48.146;11.502;2022-10-23T18:24:54;16.30;99.90
24176;DHT22;12324;48.146;11.502;2022-10-23T18:27:21;16.20;99.90
24176;DHT22;12324;48.146;11.502;2022-10-23T18:29:48;16.20;99.90
24176;DHT22;12324;48.146;11.502;2022-10-23T18:32:15;16.20;99.90
24176;DHT22;12324;48.146;11.502;2022-10-23T18:34:42;16.20;99.90
24176;DHT22;12324;48.146;11.502;2022-10-23T18:37:09;16.10;99.90
24176;DHT22;12324;48.146;11.502;2022-10-23T18:39:35;16.00;99.90
24176;DHT22;12324;48.146;11.502;2022-10-23T18:42:02;15.90;99.90
